Time;durP1;ratioP1;P1;durP2;ratioP2;P2;SDS_P1;SDS_P2;PMS_P1;PMS_P2;Temp;Humidity;BMP_temperature;BMP_pressure;BME280_temperature;BME280_humidity;BME280_pressure;Samples;Min_cycle;Max_cycle;Signal;HPM_P1;HPM_P2
2023/04/03 07:32:37;;;;;;;6.27;5.60;;;1.30;99.90;;;;;;5131803;27;20279;-75
2023/04/03 07:47:52;;;;;;;9.00;5.20;;;1.20;99.90;;;;;;5071673;28;20553;-74
2023/04/03 07:58:19;;;;;;;6.80;5.03;;;1.50;99.90;;;;;;5111752;27;20953;-74
2023/04/03 08:08:29;;;;;;;6.43;5.67;;;1.50;99.90;;;;;;5071217;28;20584;-75
2023/04/03 08:12:48;;;;;;;4.57;4.10;;;1.50;99.90;;;;;;5173407;27;20321;-74
2023/04/03 08:17:13;;;;;;;5.50;4.27;;;;;;;;;;5071115;28;20555;-74
2023/04/03 08:21:06;;;;;;;5.13;4.63;;;1.80;99.90;;;;;;5091438;28;20583;-74
2023/04/03 08:34:14;;;;;;;4.23;3.67;;;;;;;;;;5132286;27;20275;-74
2023/04/03 08:38:00;;;;;;;4.73;4.20;;;2.20;99.90;;;;;;5132235;27;20274;-74
2023/04/03 08:42:01;;;;;;;8.20;4.43;;;2.40;99.90;;;;;;5111477;27;21072;-74
2023/04/03 08:44:58;;;;;;;4.20;3.80;;;2.70;99.90;;;;;;5111106;28;20422;-74
2023/04/03 08:47:24;;;;;;;5.53;3.73;;;;;;;;;;5111023;28;20182;-74
2023/04/03 08:50:01;;;;;;;4.90;4.17;;;2.80;99.90;;;;;;5109414;28;20175;-74
2023/04/03 08:52:35;;;;;;;6.27;3.87;;;2.70;99.90;;;;;;5110792;28;20174;-74
2023/04/03 08:55:06;;;;;;;4.37;3.97;;;2.70;99.90;;;;;;5110563;28;20187;-75
2023/04/03 08:57:39;;;;;;;4.57;3.33;;;2.80;99.90;;;;;;5110822;28;20168;-75
2023/04/03 09:00:22;;;;;;;3.93;3.30;;;3.10;99.90;;;;;;5109264;28;20711;-75
2023/04/03 09:02:50;;;;;;;4.87;3.63;;;3.00;99.90;;;;;;5109079;28;20180;-74
2023/04/03 09:05:39;;;;;;;3.93;3.37;;;3.00;99.90;;;;;;5110414;28;20594;-74
2023/04/03 09:08:14;;;;;;;5.03;3.50;;;3.30;99.90;;;;;;5110506;28;20177;-75
2023/04/03 09:10:41;;;;;;;3.90;3.50;;;3.50;99.90;;;;;;5110323;28;20168;-74
2023/04/03 09:13:07;;;;;;;3.70;3.20;;;;;;;;;;5108869;28;20181;-74
2023/04/03 09:15:34;;;;;;;3.40;3.10;;;3.70;99.90;;;;;;5110298;28;20217;-74
2023/04/03 09:18:03;;;;;;;3.93;3.53;;;4.00;99.90;;;;;;5110347;28;20521;-74
2023/04/03 09:20:53;;;;;;;8.17;3.60;;;4.30;99.90;;;;;;5108906;28;20557;-74
2023/04/03 09:23:38;;;;;;;4.37;3.47;;;4.30;99.90;;;;;;5108647;28;20174;-75
2023/04/03 09:26:14;;;;;;;3.63;3.10;;;4.20;99.90;;;;;;5110327;28;20194;-75
2023/04/03 09:28:42;;;;;;;4.33;3.30;;;4.00;99.90;;;;;;5110236;28;20166;-74
2023/04/03 09:31:27;;;;;;;6.20;3.90;;;4.00;99.90;;;;;;5109835;28;20199;-75
2023/04/03 09:33:59;;;;;;;4.00;3.60;;;3.90;99.90;;;;;;5109610;28;20178;-74
2023/04/03 09:36:41;;;;;;;3.40;3.10;;;3.70;99.90;;;;;;5109915;28;20185;-75
2023/04/03 09:39:14;;;;;;;3.93;3.47;;;3.60;99.90;;;;;;5109924;28;20185;-74
2023/04/03 09:41:40;;;;;;;3.67;3.20;;;3.60;99.90;;;;;;5109374;28;20213;-74
2023/04/03 09:44:21;;;;;;;3.70;3.17;;;3.60;99.90;;;;;;5109640;28;20169;-74
2023/04/03 09:46:47;;;;;;;5.13;3.60;;;;;;;;;;5108476;28;20178;-74
2023/04/03 09:49:13;;;;;;;3.83;2.40;;;3.90;99.90;;;;;;5109758;28;20217;-74
2023/04/03 09:51:40;;;;;;;3.93;3.50;;;4.00;99.90;;;;;;5105045;28;20238;-75
2023/04/03 09:54:40;;;;;;;4.03;3.50;;;4.00;99.90;;;;;;5096042;28;20170;-75
2023/04/03 09:57:12;;;;;;;4.70;3.23;;;4.00;99.90;;;;;;5052374;28;20514;-74
2023/04/03 10:00:00;;;;;;;3.47;3.17;;;3.90;99.90;;;;;;5094635;28;20182;-75
2023/04/03 10:02:36;;;;;;;3.40;3.03;;;4.00;99.90;;;;;;5095702;28;20203;-75
2023/04/03 10:05:03;;;;;;;4.43;3.10;;;4.10;99.90;;;;;;5095826;28;20276;-74
2023/04/03 10:07:35;;;;;;;3.17;2.87;;;4.20;99.90;;;;;;5095767;28;20262;-74
2023/04/03 10:10:22;;;;;;;3.60;3.30;;;4.30;99.90;;;;;;5095864;28;20258;-74
2023/04/03 10:12:49;;;;;;;5.43;3.50;;;4.50;99.90;;;;;;5094294;28;20185;-75
2023/04/03 10:15:18;;;;;;;4.60;3.47;;;4.50;99.90;;;;;;5095462;28;20226;-74
2023/04/03 10:17:53;;;;;;;3.50;2.80;;;4.40;99.90;;;;;;5094392;28;20186;-75
2023/04/03 10:20:43;;;;;;;4.20;3.50;;;4.40;99.90;;;;;;5095568;28;20201;-75
2023/04/03 10:23:17;;;;;;;3.90;3.40;;;4.30;99.90;;;;;;5095553;28;20209;-75
2023/04/03 10:25:49;;;;;;;2.83;2.60;;;4.10;99.90;;;;;;5095376;28;20258;-75
2023/04/03 10:28:52;;;;;;;3.43;2.87;;;4.40;99.90;;;;;;5095629;28;20182;-75
2023/04/03 10:31:42;;;;;;;4.17;3.50;;;3.40;99.90;;;;;;5070528;28;20198;-75
2023/04/03 10:34:46;;;;;;;3.90;3.33;;;3.40;99.90;;;;;;5095412;28;20258;-75
2023/04/03 10:37:21;;;;;;;3.97;3.10;;;3.30;99.90;;;;;;5072652;28;20180;-75
2023/04/03 10:40:17;;;;;;;3.53;3.20;;;3.20;99.90;;;;;;5094988;28;20577;-74
2023/04/03 10:43:07;;;;;;;3.30;3.00;;;3.20;99.90;;;;;;5093500;28;20904;-75
2023/04/03 10:45:57;;;;;;;3.87;3.47;;;3.30;99.90;;;;;;5095188;28;20230;-75
2023/04/03 10:48:33;;;;;;;4.70;3.40;;;3.30;99.90;;;;;;5093922;28;20183;-75
2023/04/03 10:51:23;;;;;;;5.13;3.57;;;3.40;99.90;;;;;;5094916;28;20447;-75
2023/04/03 10:53:57;;;;;;;5.50;4.00;;;3.40;99.90;;;;;;5093603;28;20176;-75
2023/04/03 10:56:36;;;;;;;3.77;3.40;;;3.40;99.90;;;;;;5094903;28;20214;-74
2023/04/03 10:59:23;;;;;;;4.30;3.70;;;3.30;99.90;;;;;;5094780;28;20630;-74
2023/04/03 11:01:53;;;;;;;4.13;3.73;;;3.40;99.90;;;;;;5094714;28;20450;-74
2023/04/03 11:04:22;;;;;;;3.33;3.03;;;3.40;99.90;;;;;;5092630;28;20207;-74
2023/04/03 11:07:11;;;;;;;4.17;3.23;;;3.50;99.90;;;;;;5093566;28;20674;-75
2023/04/03 11:09:41;;;;;;;3.87;3.47;;;3.50;99.90;;;;;;5094745;28;20251;-74
2023/04/03 11:12:15;;;;;;;4.07;3.73;;;3.40;99.90;;;;;;5094917;28;20174;-74
2023/04/03 11:14:42;;;;;;;5.20;4.33;;;3.40;99.90;;;;;;5094548;28;20207;-75
2023/04/03 11:17:23;;;;;;;4.57;3.20;;;3.30;99.90;;;;;;5094478;28;20182;-75
2023/04/03 11:19:54;;;;;;;3.23;2.93;;;3.20;99.90;;;;;;5094213;28;20180;-74
2023/04/03 11:22:42;;;;;;;4.43;3.70;;;3.10;99.90;;;;;;5094147;28;20458;-74
2023/04/03 11:25:11;;;;;;;7.87;3.50;;;3.00;99.90;;;;;;5094411;28;20242;-74
2023/04/03 11:28:03;;;;;;;3.43;3.13;;;4.60;99.90;;;;;;5094427;28;20268;-75
2023/04/03 11:35:05;;;;;;;5.20;3.83;;;3.20;99.90;;;;;;5111393;27;20573;-75
2023/04/03 11:39:35;;;;;;;4.50;3.33;;;3.50;99.90;;;;;;5111664;27;20561;-75
2023/04/03 11:42:15;;;;;;;3.67;2.97;;;3.60;99.90;;;;;;5110809;28;20654;-75
2023/04/03 11:44:41;;;;;;;4.57;3.90;;;;;;;;;;5110826;28;20229;-75
2023/04/03 11:47:12;;;;;;;5.27;3.80;;;3.80;99.90;;;;;;5110854;28;20234;-75
2023/04/03 11:50:00;;;;;;;4.30;3.63;;;3.90;99.90;;;;;;5110852;28;20176;-75
2023/04/03 11:52:38;;;;;;;6.47;3.70;;;3.90;99.90;;;;;;5109392;28;20180;-74
2023/04/03 11:55:30;;;;;;;3.97;3.07;;;4.00;99.90;;;;;;5110679;28;20188;-74
2023/04/03 11:57:58;;;;;;;4.13;2.97;;;4.10;99.90;;;;;;5110369;27;20682;-75
2023/04/03 12:00:43;;;;;;;2.93;2.70;;;4.00;99.90;;;;;;5110646;28;20535;-75
2023/04/03 12:03:26;;;;;;;5.23;3.97;;;4.00;99.90;;;;;;5110236;28;20247;-75
2023/04/03 12:05:57;;;;;;;5.37;3.90;;;4.30;99.90;;;;;;5110344;28;20197;-74
2023/04/03 12:08:41;;;;;;;5.60;3.27;;;3.90;99.90;;;;;;5109071;28;20715;-75
2023/04/03 12:11:18;;;;;;;10.40;6.73;;;3.90;99.90;;;;;;5110491;28;20677;-74
2023/04/03 12:13:57;;;;;;;3.17;2.87;;;;;;;;;;5108729;28;20181;-74
2023/04/03 12:16:27;;;;;;;4.20;3.00;;;3.90;99.90;;;;;;5108934;28;20195;-75
2023/04/03 12:19:04;;;;;;;3.87;3.47;;;4.10;99.90;;;;;;5108967;28;20217;-74
2023/04/03 12:21:30;;;;;;;9.37;3.30;;;;;;;;;;5110254;28;20633;-75
2023/04/03 12:23:57;;;;;;;5.00;3.50;;;4.00;99.90;;;;;;5110067;28;20167;-74
2023/04/03 12:26:30;;;;;;;4.60;3.87;;;4.10;99.90;;;;;;5110176;28;20176;-75
2023/04/03 12:28:57;;;;;;;6.07;3.50;;;;;;;;;;5110330;28;20193;-75
2023/04/03 12:31:25;;;;;;;4.70;3.43;;;3.90;99.90;;;;;;5110837;28;20197;-74
2023/04/03 12:34:09;;;;;;;8.13;4.10;;;3.80;99.90;;;;;;5109931;28;20185;-75
2023/04/03 12:36:43;;;;;;;4.00;2.63;;;3.80;99.90;;;;;;5110107;28;20177;-74
2023/04/03 12:44:19;;;;;;;5.27;3.47;;;3.50;99.90;;;;;;5110842;27;20614;-75
2023/04/03 12:49:58;;;;;;;5.63;3.43;;;;;;;;;;5070667;28;20552;-75
2023/04/03 12:54:47;;;;;;;4.97;3.47;;;3.30;99.90;;;;;;5111190;27;20951;-76
2023/04/03 12:59:33;;;;;;;4.40;3.33;;;3.90;99.90;;;;;;5111264;27;20553;-75
2023/04/03 13:03:24;;;;;;;5.03;3.20;;;3.90;99.90;;;;;;5070406;28;20931;-77
2023/04/03 13:09:32;;;;;;;3.90;3.47;;;3.40;99.90;;;;;;5131791;27;20278;-74
2023/04/03 13:14:02;;;;;;;4.27;3.43;;;;;;;;;;5173135;27;20275;-75
2023/04/03 13:18:03;;;;;;;3.70;2.90;;;;;;;;;;5070644;28;21128;-75
2023/04/03 13:21:58;;;;;;;3.47;2.70;;;;;;;;;;5090698;28;20265;-77
2023/04/03 13:24:24;;;;;;;5.17;2.80;;;3.90;99.90;;;;;;5085968;28;20497;-77
2023/04/03 13:26:51;;;;;;;3.33;2.83;;;;;;;;;;5070287;28;20465;-75
2023/04/03 13:29:30;;;;;;;8.37;2.90;;;4.20;99.90;;;;;;5070439;28;20171;-77
2023/04/03 13:31:57;;;;;;;3.87;2.60;;;4.40;99.90;;;;;;5070129;28;20409;-76
2023/04/03 13:34:27;;;;;;;4.30;3.00;;;4.20;99.90;;;;;;5070106;28;20439;-77
2023/04/03 13:36:53;;;;;;;2.73;2.30;;;;;;;;;;5070308;28;20873;-75
2023/04/03 13:39:23;;;;;;;3.60;2.70;;;4.00;99.90;;;;;;5070453;28;20449;-77
2023/04/03 13:41:52;;;;;;;3.53;2.50;;;4.20;99.90;;;;;;5068761;28;20184;-76
2023/04/03 13:44:23;;;;;;;3.53;2.90;;;4.20;99.90;;;;;;5070027;28;20411;-77
2023/04/03 13:46:51;;;;;;;2.60;2.40;;;4.20;99.90;;;;;;5070179;28;20197;-76
2023/04/03 13:49:29;;;;;;;3.50;3.20;;;4.10;99.90;;;;;;5069982;28;20631;-75
2023/04/03 13:51:55;;;;;;;6.33;2.93;;;4.20;99.90;;;;;;5069649;28;20198;-75
2023/04/03 13:54:25;;;;;;;9.67;2.87;;;4.40;99.90;;;;;;5069914;28;20188;-76
2023/04/03 13:56:57;;;;;;;3.90;3.13;;;4.50;99.90;;;;;;5069762;28;20635;-75
2023/04/03 13:59:28;;;;;;;3.27;2.93;;;4.20;99.90;;;;;;5068416;28;20513;-75
2023/04/03 14:02:17;;;;;;;4.00;2.87;;;4.20;99.90;;;;;;5069668;28;20181;-75
2023/04/03 14:04:59;;;;;;;2.63;2.33;;;3.80;99.90;;;;;;5069600;28;20287;-75
2023/04/03 14:07:25;;;;;;;4.70;2.67;;;3.80;99.90;;;;;;5069752;28;20414;-75
2023/04/03 14:09:52;;;;;;;4.30;2.97;;;3.90;99.90;;;;;;5069576;28;20248;-75
2023/04/03 14:12:40;;;;;;;3.70;3.07;;;3.90;99.90;;;;;;5069417;28;20404;-75
2023/04/03 14:15:28;;;;;;;3.10;2.50;;;3.80;99.90;;;;;;5069612;28;20209;-75
2023/04/03 14:17:55;;;;;;;5.40;2.60;;;3.40;99.90;;;;;;5067981;28;20422;-75
2023/04/03 14:20:23;;;;;;;8.83;3.17;;;4.10;99.90;;;;;;5067899;28;20490;-75
2023/04/03 14:22:51;;;;;;;5.23;2.27;;;;;;;;;;5069009;28;20169;-76
2023/04/03 14:25:17;;;;;;;4.23;2.37;;;3.40;99.90;;;;;;5069073;28;21027;-76
2023/04/03 14:27:45;;;;;;;3.67;2.57;;;3.50;99.90;;;;;;5069366;28;20414;-76
2023/04/03 14:30:26;;;;;;;8.07;2.70;;;3.60;99.90;;;;;;5069026;28;20165;-75
2023/04/03 14:32:52;;;;;;;5.83;3.13;;;3.90;99.90;;;;;;5056260;28;20419;-76
2023/04/03 14:35:19;;;;;;;3.23;2.30;;;3.80;99.90;;;;;;5055628;28;20486;-76
2023/04/03 14:37:47;;;;;;;4.57;3.13;;;4.00;99.90;;;;;;5055692;28;20169;-75
2023/04/03 14:40:25;;;;;;;5.67;2.73;;;4.20;99.90;;;;;;5055580;28;20828;-73
2023/04/03 14:42:51;;;;;;;3.20;2.60;;;;;;;;;;5055557;28;20404;-74
2023/04/03 14:45:18;;;;;;;4.50;2.33;;;4.90;99.90;;;;;;5055594;28;20510;-76
2023/04/03 14:47:51;;;;;;;4.07;2.53;;;4.80;99.90;;;;;;5054685;28;20787;-75
2023/04/03 14:50:21;;;;;;;3.20;2.40;;;4.40;99.90;;;;;;5054576;28;20439;-75
2023/04/03 14:52:48;;;;;;;7.67;3.00;;;3.70;99.90;;;;;;5054123;28;20524;-75
2023/04/03 15:07:48;;;;;;;3.37;2.70;;;3.60;99.90;;;;;;5173171;27;20307;-75
2023/04/03 15:12:59;;;;;;;4.20;3.47;;;3.50;99.90;;;;;;5070393;28;20596;-76
2023/04/03 15:16:43;;;;;;;6.57;3.93;;;4.20;99.90;;;;;;5131752;27;20729;-76
2023/04/03 15:20:19;;;;;;;4.90;3.07;;;4.30;99.90;;;;;;5070737;28;20516;-74
2023/04/03 15:22:45;;;;;;;7.13;3.40;;;4.40;99.90;;;;;;5070148;28;20407;-77
2023/04/03 15:25:11;;;;;;;4.03;2.67;;;4.60;99.90;;;;;;5070470;28;20925;-77
2023/04/03 15:27:38;;;;;;;13.03;3.20;;;4.20;99.90;;;;;;5069114;28;20801;-75
2023/04/03 15:30:06;;;;;;;3.60;2.90;;;4.30;99.90;;;;;;5070624;28;20408;-78
2023/04/03 15:32:33;;;;;;;3.90;3.10;;;;;;;;;;5070370;28;20949;-75
2023/04/03 15:36:53;;;;;;;4.63;2.57;;;4.20;99.90;;;;;;5131896;27;20267;-77
